createdAt,value
2019-05-14T00:01:51.478Z,99.90
2019-05-14T00:04:22.020Z,99.90
2019-05-14T00:06:52.031Z,99.90
2019-05-14T00:09:21.511Z,99.90
2019-05-14T00:11:51.363Z,99.90
2019-05-14T00:14:22.090Z,99.90
2019-05-14T00:16:51.823Z,99.90
2019-05-14T00:19:21.570Z,99.90
2019-05-14T00:21:51.459Z,99.90
2019-05-14T00:24:21.694Z,99.90
2019-05-14T00:26:51.723Z,99.90
2019-05-14T00:29:21.978Z,99.90
2019-05-14T00:31:51.744Z,99.90
2019-05-14T00:34:21.530Z,99.90
2019-05-14T00:36:52.442Z,99.90
2019-05-14T00:39:21.957Z,99.90
2019-05-14T00:41:51.444Z,99.90
2019-05-14T00:44:21.534Z,99.90
2019-05-14T00:46:51.670Z,99.90
2019-05-14T00:49:21.312Z,99.90
2019-05-14T00:51:51.900Z,99.90
2019-05-14T00:54:21.641Z,99.90
2019-05-14T00:56:52.153Z,99.90
2019-05-14T00:59:21.714Z,99.90
2019-05-14T01:01:51.657Z,99.90
2019-05-14T01:04:22.252Z,99.90
2019-05-14T01:06:51.683Z,99.90
2019-05-14T01:09:21.843Z,99.90
2019-05-14T01:11:51.434Z,99.90
2019-05-14T01:14:21.213Z,99.90
2019-05-14T01:16:51.458Z,99.90
2019-05-14T01:19:21.422Z,99.90
2019-05-14T01:21:51.164Z,99.90
2019-05-14T01:24:21.613Z,99.90
2019-05-14T01:26:52.256Z,99.90
2019-05-14T01:29:22.023Z,99.90
2019-05-14T01:31:52.045Z,99.90
2019-05-14T01:34:21.659Z,99.90
2019-05-14T01:36:52.976Z,99.90
2019-05-14T01:39:22.276Z,99.90
2019-05-14T01:41:51.770Z,99.90
2019-05-14T01:44:21.474Z,99.90
2019-05-14T01:46:51.391Z,99.90
2019-05-14T01:49:22.112Z,99.90
2019-05-14T01:51:51.589Z,99.90
2019-05-14T01:54:21.196Z,99.90
2019-05-14T01:56:51.458Z,99.90
2019-05-14T01:59:21.318Z,99.90
2019-05-14T02:01:51.697Z,99.90
2019-05-14T02:04:22.112Z,99.90
2019-05-14T02:06:51.630Z,99.90
2019-05-14T02:09:21.724Z,99.90
2019-05-14T02:11:52.032Z,99.90
2019-05-14T02:14:21.969Z,99.90
2019-05-14T02:16:51.486Z,99.90
2019-05-14T02:19:22.187Z,99.90
2019-05-14T02:21:51.577Z,99.90
2019-05-14T02:24:21.811Z,99.90
2019-05-14T02:26:51.613Z,99.90
2019-05-14T02:29:21.468Z,99.90
2019-05-14T02:31:50.949Z,99.90
2019-05-14T02:34:20.330Z,99.90
2019-05-14T02:36:49.918Z,99.90
2019-05-14T02:39:19.807Z,99.90
2019-05-14T02:41:49.959Z,99.90
2019-05-14T02:44:19.535Z,99.90
2019-05-14T02:46:50.674Z,99.90
2019-05-14T02:49:19.751Z,99.90
2019-05-14T02:51:50.462Z,99.90
2019-05-14T02:54:20.543Z,99.90
2019-05-14T02:56:50.086Z,99.90
2019-05-14T02:59:19.753Z,99.90
2019-05-14T03:01:50.295Z,99.90
2019-05-14T03:04:20.105Z,99.90
2019-05-14T03:06:50.001Z,99.90
2019-05-14T03:09:20.265Z,99.90
2019-05-14T03:11:50.082Z,99.90
2019-05-14T03:14:19.806Z,99.90
2019-05-14T03:17:10.537Z,99.90
2019-05-14T03:19:40.871Z,99.90
2019-05-14T03:22:10.643Z,99.90
2019-05-14T03:24:40.135Z,99.90
2019-05-14T03:27:10.053Z,99.90
2019-05-14T03:29:40.276Z,99.90
2019-05-14T03:32:12.977Z,99.90
2019-05-14T03:34:43.319Z,99.90
2019-05-14T03:37:13.898Z,99.90
2019-05-14T03:39:43.216Z,99.90
2019-05-14T03:42:12.458Z,99.90
2019-05-14T03:44:41.760Z,99.90
2019-05-14T03:47:11.135Z,99.90
2019-05-14T03:49:40.632Z,99.90
2019-05-14T03:52:10.187Z,99.90
2019-05-14T03:54:40.893Z,99.90
2019-05-14T03:57:10.651Z,99.90
2019-05-14T03:59:40.702Z,99.90
2019-05-14T04:02:10.886Z,99.90
2019-05-14T04:04:40.191Z,99.90
2019-05-14T04:07:10.681Z,99.90
2019-05-14T04:09:41.677Z,99.90
2019-05-14T04:12:12.872Z,99.90
2019-05-14T04:14:45.511Z,99.90
2019-05-14T04:17:31.742Z,99.90
2019-05-14T04:19:51.283Z,99.90
2019-05-14T04:22:23.575Z,99.90
2019-05-14T04:24:55.960Z,99.90
2019-05-14T04:27:44.498Z,99.90
2019-05-14T04:30:18.887Z,99.90
2019-05-14T04:32:50.263Z,99.90
2019-05-14T04:35:20.189Z,99.90
2019-05-14T04:37:49.604Z,99.90
2019-05-14T04:40:19.212Z,99.90
2019-05-14T04:42:50.275Z,99.90
2019-05-14T04:45:19.839Z,99.90
2019-05-14T04:47:50.086Z,99.90
2019-05-14T04:50:20.135Z,99.90
2019-05-14T04:52:49.995Z,99.90
2019-05-14T04:55:20.380Z,99.90
2019-05-14T04:57:50.324Z,99.90
2019-05-14T05:00:21.190Z,99.90
2019-05-14T05:02:50.515Z,99.90
2019-05-14T05:05:19.880Z,99.90
2019-05-14T05:07:49.476Z,99.90
2019-05-14T05:10:19.433Z,99.90
2019-05-14T05:12:49.451Z,99.90
2019-05-14T05:15:39.537Z,99.90
2019-05-14T05:18:09.625Z,99.90
2019-05-14T05:20:39.429Z,99.90
2019-05-14T05:23:08.836Z,99.90
2019-05-14T05:25:38.494Z,99.90
2019-05-14T05:28:08.869Z,99.90
2019-05-14T05:30:38.612Z,99.90
2019-05-14T05:33:09.075Z,99.90
2019-05-14T05:35:42.247Z,99.90
2019-05-14T05:38:09.623Z,99.90
2019-05-14T05:40:39.221Z,99.90
2019-05-14T05:43:09.034Z,99.90
2019-05-14T05:45:38.463Z,99.90
2019-05-14T05:48:08.301Z,99.90
2019-05-14T05:50:38.932Z,99.90
2019-05-14T05:53:09.047Z,99.90
2019-05-14T05:55:39.412Z,99.90
2019-05-14T05:58:09.021Z,99.90
2019-05-14T06:00:41.414Z,99.90
2019-05-14T06:03:11.396Z,99.90
2019-05-14T06:05:40.873Z,99.90
2019-05-14T06:08:10.210Z,99.90
2019-05-14T06:10:40.075Z,99.90
2019-05-14T06:13:09.842Z,99.90
2019-05-14T06:15:45.662Z,99.90
2019-05-14T06:18:17.377Z,99.90
2019-05-14T06:20:41.127Z,99.90
2019-05-14T06:23:10.488Z,99.90
2019-05-14T06:25:40.191Z,99.90
2019-05-14T06:28:10.161Z,99.90
2019-05-14T06:30:40.098Z,99.90
2019-05-14T06:33:09.436Z,99.90
2019-05-14T06:35:39.685Z,99.90
2019-05-14T06:38:09.238Z,99.90
2019-05-14T06:40:39.482Z,99.90
2019-05-14T06:43:09.275Z,99.90
2019-05-14T06:45:39.101Z,99.90
2019-05-14T06:48:08.832Z,99.90
2019-05-14T06:50:39.213Z,99.90
2019-05-14T06:53:08.630Z,99.90
2019-05-14T06:55:39.266Z,99.90
2019-05-14T06:58:09.163Z,99.90
2019-05-14T07:00:39.470Z,99.90
2019-05-14T07:03:09.224Z,99.90
2019-05-14T07:05:39.092Z,99.90
2019-05-14T07:08:09.152Z,99.90
2019-05-14T07:10:39.544Z,99.90
2019-05-14T07:13:08.963Z,99.90
2019-05-14T07:15:38.778Z,99.90
2019-05-14T07:18:08.627Z,99.90
2019-05-14T07:20:39.143Z,99.90
2019-05-14T07:23:08.669Z,99.90
2019-05-14T07:25:39.330Z,99.90
2019-05-14T07:28:14.278Z,99.90
2019-05-14T07:30:43.689Z,99.90
2019-05-14T07:33:12.891Z,99.90
2019-05-14T07:35:42.211Z,99.90
2019-05-14T07:38:11.573Z,99.90
2019-05-14T07:40:40.986Z,99.90
2019-05-14T07:43:10.417Z,99.90
2019-05-14T07:45:39.690Z,99.90
2019-05-14T07:48:09.668Z,99.90
2019-05-14T07:50:39.816Z,99.90
2019-05-14T07:53:09.665Z,99.90
2019-05-14T07:55:38.909Z,99.90
2019-05-14T07:58:08.497Z,99.90
2019-05-14T08:00:40.288Z,99.90
2019-05-14T08:03:08.983Z,99.90
2019-05-14T08:05:48.118Z,99.90
2019-05-14T08:08:18.746Z,99.90
2019-05-14T08:10:48.741Z,99.90
2019-05-14T08:13:19.103Z,99.90
2019-05-14T08:15:49.120Z,99.90
2019-05-14T08:18:18.979Z,99.90
2019-05-14T08:20:48.770Z,99.90
2019-05-14T08:23:18.520Z,99.90
2019-05-14T08:25:48.254Z,99.90
2019-05-14T08:28:18.785Z,99.90
2019-05-14T08:30:49.170Z,99.90
2019-05-14T08:33:18.620Z,99.90
2019-05-14T08:35:48.860Z,99.90
2019-05-14T08:38:18.553Z,99.90
2019-05-14T08:40:48.943Z,99.10
2019-05-14T08:43:18.647Z,99.40
2019-05-14T08:45:48.840Z,99.90
2019-05-14T08:48:19.037Z,99.20
2019-05-14T08:50:48.692Z,99.90
2019-05-14T08:53:18.722Z,99.90
2019-05-14T08:55:48.904Z,99.90
2019-05-14T08:58:20.108Z,99.90
2019-05-14T09:00:49.284Z,98.50
2019-05-14T09:03:19.318Z,97.00
2019-05-14T09:05:49.322Z,98.10
2019-05-14T09:08:19.295Z,97.90
2019-05-14T09:10:49.761Z,97.80
2019-05-14T09:13:19.387Z,97.80
2019-05-14T09:15:49.066Z,98.20
2019-05-14T09:18:18.639Z,98.20
2019-05-14T09:20:48.905Z,97.80
2019-05-14T09:23:18.996Z,96.80
2019-05-14T09:25:53.190Z,96.40
2019-05-14T09:28:21.041Z,96.40
2019-05-14T09:30:50.233Z,97.90
2019-05-14T09:33:23.606Z,98.20
2019-05-14T09:36:07.770Z,97.70
2019-05-14T09:38:21.400Z,95.80
2019-05-14T09:41:05.671Z,95.50
2019-05-14T09:43:21.611Z,95.40
2019-05-14T09:45:50.793Z,95.90
2019-05-14T09:48:20.025Z,96.30
2019-05-14T09:50:49.309Z,94.70
2019-05-14T09:53:18.603Z,94.40
2019-05-14T09:55:49.087Z,94.80
2019-05-14T09:58:19.860Z,93.00
2019-05-14T10:00:49.681Z,92.30
2019-05-14T10:03:19.333Z,93.80
2019-05-14T10:05:50.148Z,96.00
2019-05-14T10:08:19.851Z,97.80
2019-05-14T10:10:49.223Z,98.40
2019-05-14T10:13:19.272Z,96.30
2019-05-14T10:15:48.685Z,93.10
2019-05-14T10:18:19.053Z,93.10
2019-05-14T10:20:49.304Z,91.80
2019-05-14T10:23:19.177Z,92.80
2019-05-14T10:25:48.699Z,91.50
2019-05-14T10:28:19.220Z,91.10
2019-05-14T10:30:49.141Z,92.60
2019-05-14T10:33:18.445Z,90.90
2019-05-14T10:35:48.504Z,89.60
2019-05-14T10:38:18.960Z,90.10
2019-05-14T10:40:48.615Z,92.90
2019-05-14T10:43:19.464Z,94.70
2019-05-14T10:45:49.507Z,95.90
2019-05-14T10:48:18.820Z,95.60
2019-05-14T10:50:57.219Z,97.00
2019-05-14T10:53:20.312Z,96.60
2019-05-14T10:55:49.835Z,95.90
2019-05-14T10:58:19.755Z,96.50
2019-05-14T11:00:49.640Z,96.40
2019-05-14T11:03:19.248Z,96.70
2019-05-14T11:05:48.657Z,95.70
2019-05-14T11:08:18.903Z,96.20
2019-05-14T11:10:49.750Z,96.80
2019-05-14T11:13:19.372Z,94.90
2019-05-14T11:15:48.835Z,94.90
2019-05-14T11:18:19.587Z,95.40
2019-05-14T11:20:51.406Z,95.10
2019-05-14T11:23:20.107Z,95.00
2019-05-14T11:25:49.316Z,95.40
2019-05-14T11:28:19.061Z,96.20
2019-05-14T11:30:49.746Z,96.40
2019-05-14T11:33:19.054Z,96.40
2019-05-14T11:35:48.362Z,96.20
2019-05-14T11:38:31.967Z,96.00
2019-05-14T11:40:49.567Z,95.40
2019-05-14T11:43:18.977Z,96.20
2019-05-14T11:45:48.642Z,94.90
2019-05-14T11:48:19.376Z,95.80
2019-05-14T11:50:49.406Z,96.20
2019-05-14T11:53:20.217Z,96.20
2019-05-14T11:55:50.486Z,95.60
2019-05-14T11:58:21.404Z,94.80
2019-05-14T12:00:50.899Z,94.60
2019-05-14T12:03:20.198Z,95.40
2019-05-14T12:05:49.847Z,95.80
2019-05-14T12:08:19.165Z,96.20
2019-05-14T12:10:48.413Z,95.80
2019-05-14T12:13:19.408Z,94.80
2019-05-14T12:15:48.869Z,95.60
2019-05-14T12:18:18.700Z,94.40
2019-05-14T12:20:49.883Z,94.60
2019-05-14T12:23:19.376Z,95.30
2019-05-14T12:25:49.282Z,94.60
2019-05-14T12:28:19.242Z,94.90
2019-05-14T12:30:49.100Z,95.20
2019-05-14T12:33:19.715Z,95.50
2019-05-14T12:35:49.619Z,95.10
2019-05-14T12:38:20.966Z,93.90
2019-05-14T12:40:50.616Z,93.80
2019-05-14T12:43:20.007Z,93.70
2019-05-14T12:45:49.335Z,93.50
2019-05-14T12:48:19.024Z,94.00
2019-05-14T12:50:49.050Z,94.10
2019-05-14T12:53:19.927Z,94.50
2019-05-14T12:55:49.607Z,94.40
2019-05-14T12:58:20.141Z,94.90
2019-05-14T13:00:49.859Z,93.90
2019-05-14T13:03:19.362Z,94.20
2019-05-14T13:05:49.247Z,94.60
2019-05-14T13:08:18.633Z,94.30
2019-05-14T13:10:49.198Z,94.70
2019-05-14T13:13:19.780Z,94.40
2019-05-14T13:15:53.815Z,93.90
2019-05-14T13:18:23.130Z,93.80
2019-05-14T13:20:52.518Z,93.40
2019-05-14T13:23:21.910Z,93.50
2019-05-14T13:25:51.446Z,93.60
2019-05-14T13:28:20.733Z,93.90
2019-05-14T13:30:50.048Z,94.10
2019-05-14T13:33:19.490Z,93.50
2019-05-14T13:35:48.913Z,93.50
2019-05-14T13:38:18.176Z,93.40
2019-05-14T13:40:49.180Z,93.10
2019-05-14T13:43:19.195Z,92.90
2019-05-14T13:45:49.360Z,93.30
2019-05-14T13:48:19.060Z,92.80
2019-05-14T13:50:49.196Z,92.70
2019-05-14T13:53:19.082Z,92.70
2019-05-14T13:55:57.178Z,92.40
2019-05-14T13:58:21.079Z,92.70
2019-05-14T14:00:52.061Z,93.00
2019-05-14T14:03:21.578Z,92.80
2019-05-14T14:05:51.038Z,91.90
2019-05-14T14:08:20.307Z,91.70
2019-05-14T14:10:53.658Z,91.90
2019-05-14T14:13:21.480Z,91.30
2019-05-14T14:15:50.857Z,91.20
2019-05-14T14:18:20.910Z,91.50
2019-05-14T14:20:50.600Z,91.80
2019-05-14T14:23:26.755Z,91.70
2019-05-14T14:25:54.428Z,91.90
2019-05-14T14:28:22.067Z,92.00
2019-05-14T14:30:51.402Z,91.90
2019-05-14T14:33:20.700Z,92.00
2019-05-14T14:35:50.022Z,92.00
2019-05-14T14:38:20.271Z,91.80
2019-05-14T14:40:49.648Z,92.20
2019-05-14T14:43:19.128Z,91.90
2019-05-14T14:45:50.819Z,91.50
2019-05-14T14:48:20.992Z,91.70
2019-05-14T14:50:50.534Z,91.00
2019-05-14T14:53:25.956Z,91.30
2019-05-14T14:55:51.115Z,91.40
2019-05-14T14:58:22.294Z,90.90
2019-05-14T15:00:51.805Z,90.50
2019-05-14T15:03:21.461Z,90.30
2019-05-14T15:05:50.954Z,90.50
2019-05-14T15:08:20.421Z,90.60
2019-05-14T15:10:49.787Z,90.10
2019-05-14T15:13:19.206Z,90.40
2019-05-14T15:15:49.582Z,90.70
2019-05-14T15:18:19.252Z,90.50
2019-05-14T15:20:49.020Z,90.60
2019-05-14T15:23:19.389Z,90.90
2019-05-14T15:25:49.646Z,90.60
2019-05-14T15:28:19.124Z,90.30
2019-05-14T15:30:49.892Z,90.50
2019-05-14T15:33:19.566Z,90.20
2019-05-14T15:35:49.281Z,90.20
2019-05-14T15:38:18.899Z,89.60
2019-05-14T15:40:49.009Z,89.90
2019-05-14T15:43:19.633Z,89.00
2019-05-14T15:45:52.653Z,90.60
2019-05-14T15:48:22.079Z,90.40
2019-05-14T15:50:51.469Z,89.70
2019-05-14T15:53:20.792Z,90.10
2019-05-14T15:55:50.183Z,90.10
2019-05-14T15:58:21.426Z,89.30
2019-05-14T16:00:50.757Z,88.60
2019-05-14T16:03:20.473Z,88.10
2019-05-14T16:05:49.875Z,87.60
2019-05-14T16:08:22.736Z,88.40
2019-05-14T16:10:50.347Z,88.20
2019-05-14T16:13:21.226Z,88.50
2019-05-14T16:15:50.843Z,88.80
2019-05-14T16:18:22.442Z,88.80
2019-05-14T16:20:51.266Z,87.20
2019-05-14T16:23:20.718Z,87.10
2019-05-14T16:25:49.919Z,86.90
2019-05-14T16:28:22.040Z,87.40
2019-05-14T16:30:51.390Z,87.70
2019-05-14T16:33:20.813Z,87.60
2019-05-14T16:35:50.088Z,87.80
2019-05-14T16:38:22.907Z,88.40
2019-05-14T16:40:50.536Z,87.60
2019-05-14T16:43:19.846Z,88.30
2019-05-14T16:45:49.297Z,88.90
2019-05-14T16:48:18.826Z,88.10
2019-05-14T16:50:48.920Z,88.70
2019-05-14T16:53:19.522Z,89.20
2019-05-14T16:55:49.096Z,89.60
2019-05-14T16:58:19.531Z,89.10
2019-05-14T17:00:49.408Z,89.20
2019-05-14T17:03:19.210Z,88.80
2019-05-14T17:05:48.793Z,88.70
2019-05-14T17:08:19.036Z,88.40
2019-05-14T17:10:48.686Z,88.40
2019-05-14T17:13:18.011Z,88.80
2019-05-14T17:15:48.148Z,87.80
2019-05-14T17:18:19.289Z,88.20
2019-05-14T17:20:48.994Z,88.70
2019-05-14T17:23:19.257Z,87.10
2019-05-14T17:25:48.717Z,87.40
2019-05-14T17:28:18.168Z,88.00
2019-05-14T17:30:49.100Z,88.90
2019-05-14T17:33:18.669Z,88.70
2019-05-14T17:35:48.375Z,89.40
2019-05-14T17:38:18.471Z,87.90
2019-05-14T17:40:48.887Z,87.60
2019-05-14T17:43:39.390Z,88.50
2019-05-14T17:46:09.841Z,88.40
2019-05-14T17:48:40.222Z,87.50
2019-05-14T17:51:09.665Z,87.90
2019-05-14T17:53:38.985Z,87.60
2019-05-14T17:56:08.697Z,88.20
2019-05-14T17:58:38.465Z,88.00
2019-05-14T18:01:09.133Z,89.30
2019-05-14T18:03:40.035Z,88.60
2019-05-14T18:06:09.816Z,88.80
2019-05-14T18:08:39.397Z,89.10
2019-05-14T18:11:09.012Z,89.70
2019-05-14T18:13:39.142Z,89.20
2019-05-14T18:16:09.320Z,88.80
2019-05-14T18:18:38.745Z,88.50
2019-05-14T18:21:09.387Z,88.30
2019-05-14T18:23:41.932Z,88.70
2019-05-14T18:26:10.114Z,88.50
2019-05-14T18:28:39.414Z,88.00
2019-05-14T18:31:09.500Z,88.00
2019-05-14T18:33:39.886Z,88.30
2019-05-14T18:36:28.738Z,88.90
2019-05-14T18:38:58.715Z,90.20
2019-05-14T18:41:29.336Z,89.90
2019-05-14T18:43:58.965Z,90.10
2019-05-14T18:46:28.741Z,90.30
2019-05-14T18:48:59.179Z,89.80
2019-05-14T18:51:28.934Z,90.10
2019-05-14T18:53:58.559Z,89.90
2019-05-14T18:56:29.186Z,90.00
2019-05-14T18:58:59.090Z,89.80
2019-05-14T19:01:29.112Z,90.00
2019-05-14T19:03:58.977Z,90.30
2019-05-14T19:06:28.615Z,90.40
2019-05-14T19:08:57.939Z,90.80
2019-05-14T19:11:28.105Z,90.70
2019-05-14T19:13:57.576Z,90.90
2019-05-14T19:16:28.866Z,91.00
2019-05-14T19:18:58.517Z,90.90
2019-05-14T19:21:28.587Z,90.90
2019-05-14T19:23:58.176Z,91.10
2019-05-14T19:26:36.487Z,91.10
2019-05-14T19:28:58.712Z,91.20
2019-05-14T19:31:28.091Z,91.40
2019-05-14T19:33:57.400Z,91.40
2019-05-14T19:36:28.145Z,91.70
2019-05-14T19:38:58.437Z,91.80
2019-05-14T19:41:28.227Z,92.00
2019-05-14T19:43:59.624Z,92.30
2019-05-14T19:46:29.257Z,92.50
2019-05-14T19:48:59.173Z,93.20
2019-05-14T19:51:28.635Z,93.70
2019-05-14T19:53:58.531Z,94.10
2019-05-14T19:56:29.338Z,94.40
2019-05-14T19:58:58.910Z,94.70
2019-05-14T20:01:28.816Z,95.00
2019-05-14T20:03:59.006Z,95.10
2019-05-14T20:06:29.442Z,95.50
2019-05-14T20:08:58.930Z,95.90
2019-05-14T20:11:29.067Z,96.10
2019-05-14T20:13:59.062Z,96.40
2019-05-14T20:16:29.213Z,96.60
2019-05-14T20:18:58.695Z,96.60
2019-05-14T20:21:28.330Z,96.70
2019-05-14T20:23:59.001Z,96.70
2019-05-14T20:26:28.440Z,96.90
2019-05-14T20:28:59.067Z,97.50
2019-05-14T20:31:29.685Z,97.30
2019-05-14T20:33:59.320Z,97.80
2019-05-14T20:36:28.681Z,98.00
2019-05-14T20:38:58.943Z,98.30
2019-05-14T20:41:28.891Z,98.30
2019-05-14T20:43:58.687Z,98.70
2019-05-14T20:46:28.653Z,99.10
2019-05-14T20:48:59.199Z,99.50
2019-05-14T20:51:30.422Z,99.70
2019-05-14T20:54:00.293Z,99.90
2019-05-14T20:56:29.675Z,99.90
2019-05-14T20:59:01.705Z,99.90
2019-05-14T21:01:31.513Z,99.90
2019-05-14T21:04:03.332Z,99.90
2019-05-14T21:06:32.643Z,99.90
2019-05-14T21:09:02.195Z,99.90
2019-05-14T21:11:31.732Z,99.90
2019-05-14T21:14:01.031Z,99.90
2019-05-14T21:16:30.347Z,99.90
2019-05-14T21:18:59.811Z,99.90
2019-05-14T21:21:29.242Z,99.90
2019-05-14T21:23:59.951Z,99.90
2019-05-14T21:26:29.378Z,99.90
2019-05-14T21:28:58.751Z,99.90
2019-05-14T21:31:28.481Z,99.90
2019-05-14T21:33:58.681Z,99.90
2019-05-14T21:36:28.511Z,99.90
2019-05-14T21:38:59.933Z,99.90
2019-05-14T21:41:29.374Z,99.90
2019-05-14T21:44:01.353Z,99.90
2019-05-14T21:46:31.647Z,99.90
2019-05-14T21:49:00.832Z,99.90
2019-05-14T21:51:30.235Z,99.90
2019-05-14T21:53:59.605Z,99.90
2019-05-14T21:56:29.250Z,99.90
2019-05-14T21:59:01.429Z,99.90
2019-05-14T22:01:31.068Z,99.90
2019-05-14T22:04:00.483Z,99.90
2019-05-14T22:06:29.874Z,99.90
2019-05-14T22:08:59.380Z,99.90
2019-05-14T22:11:28.759Z,99.90
2019-05-14T22:13:58.397Z,99.90
2019-05-14T22:16:28.225Z,99.90
2019-05-14T22:18:59.328Z,99.90
2019-05-14T22:21:28.999Z,99.90
2019-05-14T22:23:58.881Z,99.90
2019-05-14T22:26:28.417Z,99.90
2019-05-14T22:28:58.690Z,99.90
2019-05-14T22:31:28.959Z,99.90
2019-05-14T22:33:58.532Z,99.90
2019-05-14T22:36:29.286Z,99.90
2019-05-14T22:38:59.017Z,99.90
2019-05-14T22:41:29.116Z,99.90
2019-05-14T22:43:59.927Z,99.90
2019-05-14T22:46:29.536Z,99.90
2019-05-14T22:48:58.904Z,99.90
2019-05-14T22:51:28.239Z,99.90
2019-05-14T22:53:58.983Z,99.90
2019-05-14T22:56:28.507Z,99.90
2019-05-14T22:58:58.267Z,99.90
2019-05-14T23:01:28.900Z,99.90
2019-05-14T23:03:59.599Z,99.90
2019-05-14T23:06:29.004Z,99.90
2019-05-14T23:08:58.419Z,99.90
2019-05-14T23:11:28.857Z,99.90
2019-05-14T23:13:58.322Z,99.90
2019-05-14T23:16:36.396Z,99.90
2019-05-14T23:18:58.640Z,99.90
2019-05-14T23:21:28.403Z,99.90
2019-05-14T23:23:58.324Z,99.90
2019-05-14T23:26:28.550Z,99.90
2019-05-14T23:28:58.711Z,99.90
2019-05-14T23:31:28.851Z,99.90
2019-05-14T23:33:58.628Z,99.90
2019-05-14T23:36:29.197Z,99.90
2019-05-14T23:38:59.476Z,99.90
2019-05-14T23:41:28.814Z,99.90
2019-05-14T23:43:58.166Z,99.90
2019-05-14T23:46:29.221Z,99.90
2019-05-14T23:48:59.229Z,99.90
2019-05-14T23:51:29.110Z,99.90
2019-05-14T23:53:58.572Z,99.90
2019-05-14T23:56:28.848Z,99.90
2019-05-14T23:59:01.800Z,99.90
